Time;durP1;ratioP1;P1;durP2;ratioP2;P2;SDS_P1;SDS_P2;PMS_P1;PMS_P2;Temp;Humidity;BMP_temperature;BMP_pressure;BME280_temperature;BME280_humidity;BME280_pressure;Samples;Min_cycle;Max_cycle;Signal;HPM_P1;HPM_P2
2022/11/13 00:02:13;;;;;;;15.55;8.88;;;;;;;;;;5099255;27;20086;-68
2022/11/13 00:04:39;;;;;;;13.70;10.20;;;;;;;;;;5103634;27;20090;-69
2022/11/13 00:07:05;;;;;;;16.38;10.40;;;;;;;;;;5098662;27;20047;-67
2022/11/13 00:09:31;;;;;;;12.65;10.85;;;;;;;;;;5094439;27;20065;-69
2022/11/13 00:11:57;;;;;;;12.57;11.27;;;;;;;;;;5096564;27;20044;-68
2022/11/13 00:14:23;;;;;;;16.35;11.52;;;;;;;;;;5099349;27;20051;-68
2022/11/13 00:16:49;;;;;;;15.00;11.35;;;;;;;;;;5097277;28;20035;-70
2022/11/13 00:19:15;;;;;;;17.02;11.48;;;;;;;;;;5093830;27;20043;-69
2022/11/13 00:21:40;;;;;;;15.93;11.43;;;;;;;;;;5093598;27;20064;-69
2022/11/13 00:24:07;;;;;;;10.38;9.18;;;;;;;;;;5094713;28;20192;-68
2022/11/13 00:26:33;;;;;;;10.00;8.40;;;;;;;;;;5090858;27;20043;-70
2022/11/13 00:29:01;;;;;;;11.13;9.05;;;;;;;;;;5095371;27;20050;-69
2022/11/13 00:31:27;;;;;;;12.13;9.85;;;;;;;;;;5096778;27;20044;-70
2022/11/13 00:33:53;;;;;;;15.73;12.02;;;;;;;;;;5093344;27;20031;-69
2022/11/13 00:36:21;;;;;;;9.18;7.97;;;;;;;;;;5093726;28;20797;-68
2022/11/13 00:38:47;;;;;;;9.93;7.82;;;;;;;;;;5096742;27;20397;-70
2022/11/13 00:41:13;;;;;;;9.85;8.43;;;;;;;;;;5092848;28;20043;-70
2022/11/13 00:43:39;;;;;;;15.23;11.90;;;;;;;;;;5092304;27;20096;-70
2022/11/13 00:46:06;;;;;;;17.23;12.38;;;;;;;;;;5093169;27;20058;-67
2022/11/13 00:48:33;;;;;;;19.73;12.77;;;;;;;;;;5101752;27;20048;-67
2022/11/13 00:50:59;;;;;;;14.30;11.45;;;;;;;;;;5079543;27;20047;-70
2022/11/13 00:53:25;;;;;;;15.35;11.50;;;;;;;;;;5097889;27;20047;-70
2022/11/13 00:55:51;;;;;;;14.32;11.70;;;;;;;;;;5092813;27;20051;-67
2022/11/13 00:58:17;;;;;;;8.88;7.97;;;;;;;;;;5098785;27;20406;-68
2022/11/13 01:00:44;;;;;;;12.90;9.57;;;;;;;;;;5092325;28;20042;-68
2022/11/13 01:03:10;;;;;;;9.77;8.48;;;;;;;;;;5090945;28;20569;-68
2022/11/13 01:05:37;;;;;;;15.32;10.98;;;;;;;;;;5095460;28;20119;-68
2022/11/13 01:08:03;;;;;;;19.25;13.75;;;;;;;;;;5100553;27;20036;-67
2022/11/13 01:10:29;;;;;;;17.58;14.02;;;;;;;;;;5091931;27;20121;-67
2022/11/13 01:12:55;;;;;;;18.83;13.57;;;;;;;;;;5091091;28;20043;-68
2022/11/13 01:15:21;;;;;;;17.13;12.90;;;;;;;;;;5093071;27;20044;-67
2022/11/13 01:17:47;;;;;;;20.10;13.23;;;;;;;;;;5094168;27;20367;-68
2022/11/13 01:20:13;;;;;;;16.85;13.82;;;;;;;;;;5089663;27;20036;-68
2022/11/13 01:22:39;;;;;;;18.02;13.25;;;;;;;;;;5094537;27;20960;-67
2022/11/13 01:25:06;;;;;;;18.30;13.98;;;;;;;;;;5082804;28;20065;-67
2022/11/13 01:27:32;;;;;;;16.08;13.13;;;;;;;;;;5095969;27;20052;-67
2022/11/13 01:29:58;;;;;;;20.27;14.43;;;;;;;;;;5092135;28;20405;-67
2022/11/13 01:32:24;;;;;;;20.92;14.70;;;;;;;;;;5090001;28;20426;-70
2022/11/13 01:34:50;;;;;;;19.25;14.93;;;;;;;;;;5091958;27;20047;-67
2022/11/13 01:37:16;;;;;;;17.02;14.00;;;;;;;;;;5096306;28;20074;-67
2022/11/13 01:39:42;;;;;;;17.58;14.20;;;;;;;;;;5094843;28;20138;-69
2022/11/13 01:42:08;;;;;;;15.93;13.93;;;;;;;;;;5096581;28;20134;-67
2022/11/13 01:44:49;;;;;;;19.42;14.00;;;;;;;;;;5086161;28;20058;-69
2022/11/13 01:47:15;;;;;;;16.50;12.88;;;;;;;;;;5095924;28;20059;-70
2022/11/13 01:49:42;;;;;;;16.60;12.77;;;;;;;;;;5092258;28;20044;-68
2022/11/13 01:52:19;;;;;;;17.23;12.77;;;;;;;;;;5093813;28;20120;-69
2022/11/13 01:54:50;;;;;;;16.00;12.60;;;;;;;;;;5096296;28;20067;-68
2022/11/13 01:57:16;;;;;;;15.45;13.15;;;;;;;;;;5094671;27;20440;-70
2022/11/13 01:59:45;;;;;;;18.17;13.70;;;;;;;;;;5099463;27;20043;-70
2022/11/13 02:02:11;;;;;;;19.08;13.38;;;;;;;;;;5101989;27;20082;-70
2022/11/13 02:04:37;;;;;;;17.70;13.43;;;;;;;;;;5099988;27;20044;-69
2022/11/13 02:07:05;;;;;;;18.38;14.68;;;;;;;;;;5098904;27;20120;-70
2022/11/13 02:09:33;;;;;;;18.00;14.82;;;;;;;;;;5102448;27;20490;-70
2022/11/13 02:12:00;;;;;;;17.67;14.43;;;;;;;;;;5100909;27;20077;-70
2022/11/13 02:14:27;;;;;;;19.20;14.50;;;;;;;;;;5102900;27;20040;-70
2022/11/13 02:16:55;;;;;;;16.65;13.50;;;;;;;;;;5100650;27;20035;-70
2022/11/13 02:19:25;;;;;;;17.85;14.20;;;;;;;;;;5102264;27;20048;-70
2022/11/13 02:22:11;;;;;;;20.35;13.80;;;;;;;;;;5096048;27;20074;-70
2022/11/13 02:24:41;;;;;;;17.75;13.50;;;;;;;;;;5096763;27;20046;-70
2022/11/13 02:27:10;;;;;;;19.80;14.18;;;;;;;;;;5100522;27;20141;-69
2022/11/13 02:29:36;;;;;;;18.30;13.80;;;;;;;;;;5101465;27;20040;-69
2022/11/13 02:32:02;;;;;;;15.98;13.55;;;;;;;;;;5101359;27;20055;-70
2022/11/13 02:34:28;;;;;;;17.92;14.20;;;;;;;;;;5101626;27;20032;-70
2022/11/13 02:36:54;;;;;;;17.20;12.98;;;;;;;;;;5096294;27;20135;-69
2022/11/13 02:39:20;;;;;;;16.92;12.52;;;;;;;;;;5100948;27;20048;-67
2022/11/13 02:41:46;;;;;;;18.92;13.70;;;;;;;;;;5097418;27;20114;-67
2022/11/13 02:44:12;;;;;;;17.95;14.32;;;;;;;;;;5100299;27;20062;-67
2022/11/13 02:46:39;;;;;;;18.35;14.70;;;;;;;;;;5105365;27;20040;-70
2022/11/13 02:49:06;;;;;;;20.73;14.55;;;;;;;;;;5106981;27;20045;-69
2022/11/13 02:51:32;;;;;;;15.73;13.75;;;;;;;;;;5103757;27;20083;-69
2022/11/13 02:53:58;;;;;;;19.17;14.88;;;;;;;;;;5096921;27;20050;-70
2022/11/13 02:56:24;;;;;;;18.85;15.02;;;;;;;;;;5097860;27;20082;-70
2022/11/13 02:58:50;;;;;;;22.80;14.80;;;;;;;;;;5103475;27;20042;-66
2022/11/13 03:01:16;;;;;;;22.23;15.90;;;;;;;;;;5098250;27;20174;-69
2022/11/13 03:03:42;;;;;;;19.92;16.35;;;;;;;;;;5093300;27;20120;-68
2022/11/13 03:06:08;;;;;;;23.95;15.93;;;;;;;;;;5101067;27;20040;-70
2022/11/13 03:08:34;;;;;;;19.73;14.95;;;;;;;;;;5097264;27;20394;-70
2022/11/13 03:11:05;;;;;;;19.90;16.67;;;;;;;;;;5094810;27;20096;-69
2022/11/13 03:13:31;;;;;;;20.08;16.33;;;;;;;;;;5100494;27;20556;-70
2022/11/13 03:16:04;;;;;;;20.13;16.33;;;;;;;;;;5097703;27;20040;-70
2022/11/13 03:18:30;;;;;;;25.42;16.13;;;;;;;;;;5096541;27;20184;-69
2022/11/13 03:20:56;;;;;;;19.85;15.93;;;;;;;;;;5098219;27;20060;-70
2022/11/13 03:23:22;;;;;;;18.02;15.82;;;;;;;;;;5093282;27;20086;-69
2022/11/13 03:25:48;;;;;;;20.77;16.83;;;;;;;;;;5101940;27;20080;-70
2022/11/13 03:28:14;;;;;;;19.63;16.10;;;;;;;;;;5093311;28;20035;-70
2022/11/13 03:30:40;;;;;;;23.50;16.27;;;;;;;;;;5094816;28;20047;-67
2022/11/13 03:33:06;;;;;;;19.30;15.18;;;;;;;;;;5094082;27;20059;-68
2022/11/13 03:35:32;;;;;;;18.63;15.10;;;;;;;;;;5078612;28;20081;-69
2022/11/13 03:37:58;;;;;;;18.50;14.93;;;;;;;;;;5095208;27;20039;-70
2022/11/13 03:40:24;;;;;;;19.48;14.98;;;;;;;;;;5094394;27;20071;-70
2022/11/13 03:42:49;;;;;;;21.58;15.63;;;;;;;;;;5093552;27;20047;-67
2022/11/13 03:45:15;;;;;;;20.02;15.85;;;;;;;;;;5098680;27;20044;-68
2022/11/13 03:47:42;;;;;;;17.27;14.93;;;;;;;;;;5094743;27;20096;-70
2022/11/13 03:50:08;;;;;;;19.67;15.27;;;;;;;;;;5090817;27;20040;-69
2022/11/13 03:52:34;;;;;;;17.60;15.57;;;;;;;;;;5092788;27;20051;-69
2022/11/13 03:55:00;;;;;;;19.20;15.75;;;;;;;;;;5094160;27;20040;-69
2022/11/13 03:57:26;;;;;;;20.48;16.05;;;;;;;;;;5097626;27;20410;-69
2022/11/13 03:59:52;;;;;;;19.20;16.27;;;;;;;;;;5082376;28;20085;-70
2022/11/13 04:02:17;;;;;;;23.88;17.20;;;;;;;;;;5092943;27;20484;-69
2022/11/13 04:04:43;;;;;;;21.55;17.13;;;;;;;;;;5094344;27;20047;-70
2022/11/13 04:07:09;;;;;;;25.83;17.73;;;;;;;;;;5099449;27;20062;-67
2022/11/13 04:09:35;;;;;;;21.73;17.60;;;;;;;;;;5095393;28;20050;-70
2022/11/13 04:12:01;;;;;;;25.15;17.55;;;;;;;;;;5092835;27;20051;-70
2022/11/13 04:14:27;;;;;;;23.23;16.92;;;;;;;;;;5095920;27;20043;-70
2022/11/13 04:16:53;;;;;;;22.05;17.90;;;;;;;;;;5094652;28;20054;-70
2022/11/13 04:19:19;;;;;;;22.25;17.50;;;;;;;;;;5093414;28;20115;-69
2022/11/13 04:21:45;;;;;;;23.10;15.85;;;;;;;;;;5093318;28;20127;-70
2022/11/13 04:24:11;;;;;;;20.30;15.88;;;;;;;;;;5101144;27;20043;-69
2022/11/13 04:26:37;;;;;;;18.60;16.05;;;;;;;;;;5094402;27;20044;-70
2022/11/13 04:29:03;;;;;;;19.83;15.65;;;;;;;;;;5097671;27;20123;-70
2022/11/13 04:31:29;;;;;;;18.55;15.40;;;;;;;;;;5097245;27;20043;-68
2022/11/13 04:33:55;;;;;;;18.92;15.23;;;;;;;;;;5096805;27;20047;-68
2022/11/13 04:36:21;;;;;;;22.27;16.70;;;;;;;;;;5095480;27;20127;-69
2022/11/13 04:38:47;;;;;;;20.10;16.30;;;;;;;;;;5094600;27;20054;-69
2022/11/13 04:43:58;;;;;;;22.83;16.00;;;;;;;;;;5091083;28;20138;-66
2022/11/13 04:46:24;;;;;;;20.60;16.55;;;;;;;;;;5088300;28;20127;-70
2022/11/13 04:48:50;;;;;;;22.17;17.42;;;;;;;;;;5092380;27;20047;-70
2022/11/13 04:51:16;;;;;;;22.55;17.15;;;;;;;;;;5093520;28;20039;-69
2022/11/13 04:53:42;;;;;;;22.33;17.40;;;;;;;;;;5098466;27;20075;-69
2022/11/13 04:56:08;;;;;;;21.45;16.20;;;;;;;;;;5090393;27;20700;-71
2022/11/13 04:58:33;;;;;;;20.05;15.80;;;;;;;;;;5092531;27;20039;-68
2022/11/13 05:00:59;;;;;;;19.75;15.95;;;;;;;;;;5093556;28;20056;-68
2022/11/13 05:03:25;;;;;;;21.05;15.90;;;;;;;;;;5098852;27;20056;-69
2022/11/13 05:05:51;;;;;;;21.95;16.38;;;;;;;;;;5101368;27;20242;-69
2022/11/13 05:08:17;;;;;;;23.23;17.35;;;;;;;;;;5092453;28;20146;-71
2022/11/13 05:10:43;;;;;;;21.83;15.95;;;;;;;;;;5092202;28;20044;-67
2022/11/13 05:13:09;;;;;;;20.05;16.40;;;;;;;;;;5092465;27;20681;-67
2022/11/13 05:15:35;;;;;;;22.67;17.02;;;;;;;;;;5091884;28;20074;-67
2022/11/13 05:18:01;;;;;;;22.00;17.23;;;;;;;;;;5096429;27;20067;-67
2022/11/13 05:20:27;;;;;;;22.80;17.92;;;;;;;;;;5092018;28;20047;-69
2022/11/13 05:22:53;;;;;;;28.15;17.77;;;;;;;;;;5095589;27;20482;-68
2022/11/13 05:25:19;;;;;;;21.55;17.80;;;;;;;;;;5094426;27;20048;-67
2022/11/13 05:27:45;;;;;;;21.35;18.73;;;;;;;;;;5092949;27;20040;-68
2022/11/13 05:30:11;;;;;;;22.85;17.17;;;;;;;;;;5098807;27;20031;-68
2022/11/13 05:32:37;;;;;;;23.77;16.98;;;;;;;;;;5093593;27;20048;-69
2022/11/13 05:35:03;;;;;;;22.70;17.80;;;;;;;;;;5094412;27;20035;-67
2022/11/13 05:37:29;;;;;;;21.50;17.23;;;;;;;;;;5091834;28;20127;-67
2022/11/13 05:39:55;;;;;;;22.70;17.42;;;;;;;;;;5094050;28;20150;-68
2022/11/13 05:42:21;;;;;;;24.75;17.30;;;;;;;;;;5096442;28;20097;-71
2022/11/13 05:44:47;;;;;;;18.92;16.63;;;;;;;;;;5092311;27;20043;-69
2022/11/13 05:47:13;;;;;;;25.58;16.23;;;;;;;;;;5093776;27;20089;-68
2022/11/13 05:49:39;;;;;;;18.23;15.43;;;;;;;;;;5093819;28;20051;-69
2022/11/13 05:52:05;;;;;;;16.52;12.88;;;;;;;;;;5092500;28;20077;-67
2022/11/13 05:54:31;;;;;;;16.83;13.63;;;;;;;;;;5092457;28;20052;-67
2022/11/13 05:56:57;;;;;;;15.07;13.45;;;;;;;;;;5093888;28;20040;-67
2022/11/13 05:59:23;;;;;;;15.38;12.93;;;;;;;;;;5095490;28;20470;-68
2022/11/13 06:01:48;;;;;;;16.75;14.25;;;;;;;;;;5088814;28;20068;-67
2022/11/13 06:04:14;;;;;;;21.60;13.65;;;;;;;;;;5094438;28;20050;-67
2022/11/13 06:06:41;;;;;;;14.15;12.65;;;;;;;;;;5090476;28;20073;-68
2022/11/13 06:09:07;;;;;;;16.88;11.98;;;;;;;;;;5091798;28;20078;-69
2022/11/13 06:11:33;;;;;;;14.73;12.13;;;;;;;;;;5090100;28;20064;-67
2022/11/13 06:13:59;;;;;;;14.32;11.80;;;;;;;;;;5090721;28;20059;-67
2022/11/13 06:16:26;;;;;;;17.52;13.50;;;;;;;;;;5089083;28;20051;-69
2022/11/13 06:18:57;;;;;;;18.45;13.88;;;;;;;;;;5099917;28;20040;-69
2022/11/13 06:21:24;;;;;;;17.00;15.20;;;;;;;;;;5088679;28;20044;-70
2022/11/13 06:23:50;;;;;;;14.57;12.45;;;;;;;;;;5080166;28;20036;-69
2022/11/13 06:26:23;;;;;;;19.42;12.57;;;;;;;;;;5093086;28;20055;-67
2022/11/13 06:28:49;;;;;;;15.38;13.68;;;;;;;;;;5090241;28;20043;-70
2022/11/13 06:31:19;;;;;;;18.75;13.60;;;;;;;;;;5093111;28;20046;-69
2022/11/13 06:33:46;;;;;;;17.55;15.00;;;;;;;;;;5088883;28;20138;-70
2022/11/13 06:36:13;;;;;;;21.60;16.23;;;;;;;;;;5092149;28;20044;-69
2022/11/13 06:38:40;;;;;;;20.00;16.27;;;;;;;;;;5091755;28;20486;-70
2022/11/13 06:41:06;;;;;;;17.85;15.30;;;;;;;;;;5093555;28;20130;-67
2022/11/13 06:43:32;;;;;;;20.30;16.85;;;;;;;;;;5095928;27;20497;-69
2022/11/13 06:45:59;;;;;;;23.08;16.50;;;;;;;;;;5096186;28;20068;-70
2022/11/13 06:48:25;;;;;;;21.38;16.70;;;;;;;;;;5097669;27;20081;-69
2022/11/13 06:50:51;;;;;;;17.48;14.80;;;;;;;;;;5099059;27;20048;-67
2022/11/13 06:53:17;;;;;;;20.00;16.65;;;;;;;;;;5095013;27;20051;-68
2022/11/13 06:55:47;;;;;;;21.65;16.25;;;;;;;;;;5092752;28;20097;-68
2022/11/13 06:58:13;;;;;;;22.63;16.83;;;;;;;;;;5080338;28;20040;-70
2022/11/13 07:00:40;;;;;;;20.05;16.40;;;;;;;;;;5096082;27;20093;-70
2022/11/13 07:03:06;;;;;;;23.10;15.75;;;;;;;;;;5097904;27;21980;-67
2022/11/13 07:05:35;;;;;;;17.85;15.40;;;;;;;;;;5090919;27;20048;-70
2022/11/13 07:08:01;;;;;;;21.00;15.88;;;;;;;;;;5097148;27;20074;-70
2022/11/13 07:10:27;;;;;;;19.83;15.27;;;;;;;;;;5101816;27;20075;-69
2022/11/13 07:12:53;;;;;;;19.08;15.00;;;;;;;;;;5095096;27;20047;-70
2022/11/13 07:15:19;;;;;;;19.60;16.30;;;;;;;;;;5095910;28;20059;-67
2022/11/13 07:17:45;;;;;;;21.40;16.17;;;;;;;;;;5096773;27;22027;-70
2022/11/13 07:20:11;;;;;;;23.08;16.02;;;;;;;;;;5098455;27;20036;-70
2022/11/13 07:22:37;;;;;;;25.40;15.68;;;;;;;;;;5093632;27;20047;-70
2022/11/13 07:25:03;;;;;;;19.92;15.68;;;;;;;;;;5096340;28;20101;-66
2022/11/13 07:27:29;;;;;;;24.02;17.00;;;;;;;;;;5099097;27;20122;-68
2022/11/13 07:29:55;;;;;;;22.52;17.40;;;;;;;;;;5092217;28;20048;-70
2022/11/13 07:32:21;;;;;;;26.92;17.90;;;;;;;;;;5093475;27;20056;-71
2022/11/13 07:34:46;;;;;;;21.88;18.52;;;;;;;;;;5093972;27;20119;-70
2022/11/13 07:37:13;;;;;;;22.73;18.02;;;;;;;;;;5093117;27;20043;-70
2022/11/13 07:39:38;;;;;;;24.48;18.17;;;;;;;;;;5089451;27;20054;-70
2022/11/13 07:42:04;;;;;;;22.73;18.05;;;;;;;;;;5095127;27;20048;-71
2022/11/13 07:44:30;;;;;;;22.38;17.30;;;;;;;;;;5096199;28;20043;-70
2022/11/13 07:46:56;;;;;;;23.58;17.27;;;;;;;;;;5095030;27;20682;-67
2022/11/13 07:49:22;;;;;;;23.58;17.25;;;;;;;;;;5091931;27;20182;-67
2022/11/13 07:51:48;;;;;;;23.17;18.20;;;;;;;;;;5096228;27;20138;-70
2022/11/13 07:54:14;;;;;;;24.17;19.10;;;;;;;;;;5096514;27;20097;-68
2022/11/13 07:56:40;;;;;;;25.70;18.02;;;;;;;;;;5095375;27;20047;-70
2022/11/13 07:59:06;;;;;;;25.48;17.13;;;;;;;;;;5097075;27;20537;-70
2022/11/13 08:01:32;;;;;;;27.13;17.83;;;;;;;;;;5091661;27;20051;-67
2022/11/13 08:03:58;;;;;;;21.15;17.13;;;;;;;;;;5091064;28;20051;-68
2022/11/13 08:06:26;;;;;;;23.23;18.00;;;;;;;;;;5091941;28;20052;-70
2022/11/13 08:08:52;;;;;;;20.67;17.52;;;;;;;;;;5093682;27;20401;-70
2022/11/13 08:11:18;;;;;;;21.67;17.33;;;;;;;;;;5097218;27;20046;-68
2022/11/13 08:13:44;;;;;;;20.65;17.25;;;;;;;;;;5092187;28;20048;-68
2022/11/13 08:16:11;;;;;;;20.77;17.45;;;;;;;;;;5091065;27;20043;-68
2022/11/13 08:18:37;;;;;;;22.42;17.40;;;;;;;;;;5091954;28;20047;-68
2022/11/13 08:21:03;;;;;;;22.65;17.80;;;;;;;;;;5088311;28;20127;-72
2022/11/13 08:23:30;;;;;;;20.40;16.90;;;;;;;;;;5090378;27;20385;-67
2022/11/13 08:25:56;;;;;;;25.55;18.40;;;;;;;;;;5088509;28;20149;-71
2022/11/13 08:28:22;;;;;;;21.65;17.38;;;;;;;;;;5090629;27;20047;-70
2022/11/13 08:30:48;;;;;;;21.27;16.90;;;;;;;;;;5094307;27;20122;-69
2022/11/13 08:33:14;;;;;;;21.77;17.15;;;;;;;;;;5094359;27;20040;-69
2022/11/13 08:35:40;;;;;;;23.35;17.45;;;;;;;;;;5074309;28;20032;-71
2022/11/13 08:38:07;;;;;;;20.30;16.75;;;;;;;;;;5072295;28;20047;-71
2022/11/13 08:40:34;;;;;;;21.55;16.60;;;;;;;;;;5086956;28;20847;-68
2022/11/13 08:43:01;;;;;;;20.17;18.00;;;;;;;;;;5088483;27;20048;-68
2022/11/13 08:45:27;;;;;;;24.20;19.73;;;;;;;;;;5089609;27;20043;-69
2022/11/13 08:47:54;;;;;;;24.13;19.33;;;;;;;;;;5087887;27;20044;-67
2022/11/13 08:50:20;;;;;;;21.13;17.92;;;;;;;;;;5088968;28;20522;-68
2022/11/13 08:52:46;;;;;;;22.67;18.58;;;;;;;;;;5092052;27;20149;-70
2022/11/13 08:55:12;;;;;;;21.80;17.83;;;;;;;;;;5088587;28;20071;-68
2022/11/13 08:57:39;;;;;;;22.40;18.23;;;;;;;;;;5091998;27;20048;-67
2022/11/13 09:00:05;;;;;;;22.40;17.63;;;;;;;;;;5091380;27;20043;-68
2022/11/13 09:02:31;;;;;;;21.75;17.33;;;;;;;;;;5086262;27;20059;-68
2022/11/13 09:04:57;;;;;;;24.08;17.88;;;;;;;;;;5094161;27;20614;-68
2022/11/13 09:07:23;;;;;;;22.95;17.05;;;;;;;;;;5093618;27;20052;-68
2022/11/13 09:09:49;;;;;;;19.73;17.40;;;;;;;;;;5091175;28;20043;-69
2022/11/13 09:12:15;;;;;;;20.92;17.00;;;;;;;;;;5090203;27;20048;-69
2022/11/13 09:14:41;;;;;;;18.98;16.88;;;;;;;;;;5098863;27;20138;-69
2022/11/13 09:17:07;;;;;;;22.25;16.90;;;;;;;;;;5098753;27;20043;-67
2022/11/13 09:19:33;;;;;;;18.92;16.25;;;;;;;;;;5099368;27;20142;-67
2022/11/13 09:21:59;;;;;;;21.45;16.30;;;;;;;;;;5100897;27;20055;-67
2022/11/13 09:24:25;;;;;;;20.60;17.00;;;;;;;;;;5101170;27;20044;-68
2022/11/13 09:26:51;;;;;;;19.70;17.25;;;;;;;;;;5102071;27;20047;-68
2022/11/13 09:29:18;;;;;;;18.75;16.17;;;;;;;;;;5101431;27;20040;-70
2022/11/13 09:31:44;;;;;;;21.42;15.68;;;;;;;;;;5096487;27;20044;-70
2022/11/13 09:34:10;;;;;;;17.38;15.32;;;;;;;;;;5098254;27;20036;-69
2022/11/13 09:36:36;;;;;;;17.52;15.68;;;;;;;;;;5108649;27;20596;-70
2022/11/13 09:39:03;;;;;;;18.27;15.82;;;;;;;;;;5104490;28;20127;-70
2022/11/13 09:41:36;;;;;;;17.08;15.20;;;;;;;;;;5102233;27;20052;-69
2022/11/13 09:44:04;;;;;;;17.02;14.88;;;;;;;;;;5115202;27;20058;-68
2022/11/13 09:46:38;;;;;;;17.65;14.90;;;;;;;;;;5097689;27;20044;-69
2022/11/13 09:49:10;;;;;;;18.17;14.80;;;;;;;;;;5112544;27;20050;-69
2022/11/13 09:51:37;;;;;;;17.33;14.85;;;;;;;;;;5097793;28;20411;-70
2022/11/13 09:54:05;;;;;;;20.60;16.75;;;;;;;;;;5099212;28;20040;-70
2022/11/13 09:56:34;;;;;;;17.02;14.63;;;;;;;;;;5098217;28;20047;-70
2022/11/13 09:59:06;;;;;;;18.23;13.85;;;;;;;;;;5113725;28;20514;-69
2022/11/13 10:01:47;;;;;;;16.98;14.02;;;;;;;;;;5103102;28;20071;-70
2022/11/13 10:04:15;;;;;;;18.45;14.52;;;;;;;;;;5097958;28;20048;-68
2022/11/13 10:06:53;;;;;;;17.27;15.15;;;;;;;;;;5110219;28;20094;-69
2022/11/13 10:09:24;;;;;;;16.67;13.00;;;;;;;;;;5109536;28;20052;-70
2022/11/13 10:11:57;;;;;;;14.65;13.10;;;;;;;;;;5091353;28;20055;-70
2022/11/13 10:14:28;;;;;;;14.25;12.75;;;;;;;;;;5086941;28;20044;-69
2022/11/13 10:16:58;;;;;;;16.45;12.98;;;;;;;;;;5090065;28;20044;-69
2022/11/13 10:19:53;;;;;;;15.73;14.05;;;;;;;;;;5092409;27;20047;-69
2022/11/13 10:22:19;;;;;;;16.45;14.70;;;;;;;;;;5098734;27;20039;-70
2022/11/13 10:24:45;;;;;;;16.45;14.75;;;;;;;;;;5106818;27;20120;-71
2022/11/13 10:27:12;;;;;;;18.05;13.95;;;;;;;;;;5097441;27;20769;-71
2022/11/13 10:29:39;;;;;;;17.10;12.75;;;;;;;;;;5093311;27;20101;-70
2022/11/13 10:32:22;;;;;;;17.27;13.88;;;;;;;;;;5091414;27;20043;-71
2022/11/13 10:34:50;;;;;;;15.30;11.27;;;;;;;;;;5095604;27;20836;-69
2022/11/13 10:37:26;;;;;;;13.00;11.05;;;;;;;;;;5091632;28;20394;-70
2022/11/13 10:39:52;;;;;;;13.00;10.55;;;;;;;;;;5100602;28;20052;-70
2022/11/13 10:42:22;;;;;;;14.60;10.98;;;;;;;;;;5100704;28;20049;-70
2022/11/13 10:44:53;;;;;;;13.15;10.38;;;;;;;;;;5108274;27;20063;-71
2022/11/13 10:47:20;;;;;;;15.43;10.23;;;;;;;;;;5107834;27;20162;-71
2022/11/13 10:49:46;;;;;;;14.15;10.65;;;;;;;;;;5114904;27;20055;-69
2022/11/13 10:52:20;;;;;;;11.00;9.90;;;;;;;;;;5113344;27;20039;-68
2022/11/13 10:54:46;;;;;;;12.25;9.30;;;;;;;;;;5114460;27;20044;-69
2022/11/13 10:57:18;;;;;;;11.98;9.80;;;;;;;;;;5103323;27;20051;-68
2022/11/13 10:59:45;;;;;;;11.10;9.25;;;;;;;;;;5103586;27;20050;-71
2022/11/13 11:02:11;;;;;;;9.82;8.77;;;;;;;;;;5110613;27;20588;-71
2022/11/13 11:04:37;;;;;;;13.23;8.73;;;;;;;;;;5117074;27;20065;-69
2022/11/13 11:07:22;;;;;;;9.70;8.35;;;;;;;;;;5083681;27;20135;-71
2022/11/13 11:09:48;;;;;;;9.77;8.77;;;;;;;;;;5091030;28;20040;-70
2022/11/13 11:12:19;;;;;;;9.48;8.52;;;;;;;;;;5105011;27;20092;-71
2022/11/13 11:14:54;;;;;;;10.43;8.10;;;;;;;;;;5108031;27;20063;-69
2022/11/13 11:17:22;;;;;;;8.75;7.65;;;;;;;;;;5107343;27;20040;-71
2022/11/13 11:19:51;;;;;;;10.45;7.05;;;;;;;;;;5103890;28;20051;-71
2022/11/13 11:22:19;;;;;;;7.90;6.30;;;;;;;;;;5107940;28;20098;-69
2022/11/13 11:24:50;;;;;;;7.05;6.35;;;;;;;;;;5110018;27;20079;-71
2022/11/13 11:27:26;;;;;;;7.93;7.10;;;;;;;;;;5115896;27;20077;-71
2022/11/13 11:30:01;;;;;;;7.53;5.93;;;;;;;;;;5095473;27;20040;-71
2022/11/13 11:32:41;;;;;;;10.50;5.90;;;;;;;;;;5104037;27;20047;-71
2022/11/13 11:35:30;;;;;;;7.70;6.45;;;;;;;;;;5094671;27;20035;-69
2022/11/13 11:38:14;;;;;;;6.20;5.60;;;;;;;;;;5106255;27;20059;-70
2022/11/13 11:40:42;;;;;;;6.00;5.40;;;;;;;;;;5104192;27;20118;-70
2022/11/13 11:43:11;;;;;;;9.07;6.00;;;;;;;;;;5103772;27;20043;-71
2022/11/13 11:45:39;;;;;;;6.65;5.40;;;;;;;;;;5097334;27;20108;-70
2022/11/13 11:48:11;;;;;;;6.18;5.57;;;;;;;;;;5106419;27;20043;-71
2022/11/13 11:50:40;;;;;;;7.07;5.43;;;;;;;;;;5096656;28;20048;-70
2022/11/13 11:53:13;;;;;;;8.60;5.90;;;;;;;;;;5103376;27;20612;-70
2022/11/13 11:55:52;;;;;;;8.10;5.53;;;;;;;;;;5118289;27;20050;-70
2022/11/13 11:58:18;;;;;;;5.60;5.10;;;;;;;;;;5101918;27;20036;-68
2022/11/13 12:00:51;;;;;;;6.10;5.18;;;;;;;;;;5105265;27;20042;-66
2022/11/13 12:03:28;;;;;;;7.97;5.80;;;;;;;;;;5097328;28;20109;-68
2022/11/13 12:05:54;;;;;;;5.43;4.82;;;;;;;;;;5095207;27;20040;-66
2022/11/13 12:08:29;;;;;;;5.82;5.22;;;;;;;;;;5115122;27;21333;-66
2022/11/13 12:10:59;;;;;;;6.10;5.43;;;;;;;;;;5100093;28;20044;-67
2022/11/13 12:13:30;;;;;;;5.20;4.70;;;;;;;;;;5101427;28;20050;-68
2022/11/13 12:16:28;;;;;;;6.32;5.35;;;;;;;;;;5106065;28;20050;-67
2022/11/13 12:19:02;;;;;;;6.13;5.53;;;;;;;;;;5050130;28;20047;-66
2022/11/13 12:21:40;;;;;;;5.45;4.95;;;;;;;;;;5096696;28;20048;-69
2022/11/13 12:24:30;;;;;;;6.72;5.50;;;;;;;;;;5106682;27;20050;-69
2022/11/13 12:27:07;;;;;;;6.15;5.53;;;;;;;;;;5103231;28;20043;-70
2022/11/13 12:29:36;;;;;;;6.05;5.40;;;;;;;;;;5106826;27;20409;-70
2022/11/13 12:32:21;;;;;;;8.93;5.28;;;;;;;;;;5103485;28;20048;-68
2022/11/13 12:34:50;;;;;;;5.75;5.18;;;;;;;;;;5105846;28;20042;-70
2022/11/13 12:37:25;;;;;;;7.95;5.25;;;;;;;;;;5108179;28;20048;-69
2022/11/13 12:39:57;;;;;;;16.95;5.53;;;;;;;;;;5102902;27;20051;-70
2022/11/13 12:42:30;;;;;;;6.32;5.30;;;;;;;;;;5101495;28;20051;-70
2022/11/13 12:45:03;;;;;;;30.20;6.68;;;;;;;;;;5099704;28;20040;-68
2022/11/13 12:47:30;;;;;;;6.65;5.25;;;;;;;;;;5104948;28;20089;-66
2022/11/13 12:50:00;;;;;;;10.57;5.47;;;;;;;;;;5108970;28;20046;-66
2022/11/13 12:52:26;;;;;;;9.02;5.38;;;;;;;;;;5108192;28;20092;-66
2022/11/13 12:55:02;;;;;;;6.18;5.03;;;;;;;;;;5098850;28;20050;-67
2022/11/13 12:57:28;;;;;;;6.45;5.20;;;;;;;;;;5106706;28;20374;-66
2022/11/13 12:59:55;;;;;;;8.68;5.25;;;;;;;;;;5106730;28;20047;-66
2022/11/13 13:02:21;;;;;;;5.20;4.70;;;;;;;;;;5107367;28;20074;-67
2022/11/13 13:05:06;;;;;;;5.63;5.07;;;;;;;;;;5095942;28;20043;-69
2022/11/13 13:07:50;;;;;;;5.72;4.90;;;;;;;;;;5108562;27;20047;-67
2022/11/13 13:10:37;;;;;;;5.15;4.60;;;;;;;;;;5104999;28;20070;-69
2022/11/13 13:13:03;;;;;;;4.85;4.40;;;;;;;;;;5067836;28;20060;-70
2022/11/13 13:15:29;;;;;;;5.53;4.95;;;;;;;;;;5091673;28;20039;-68
2022/11/13 13:18:06;;;;;;;6.30;4.85;;;;;;;;;;5098911;28;20478;-69
2022/11/13 13:20:39;;;;;;;4.93;4.30;;;;;;;;;;5099793;28;20043;-69
2022/11/13 13:23:05;;;;;;;8.00;4.30;;;;;;;;;;5095606;27;20051;-66
2022/11/13 13:25:32;;;;;;;6.05;4.55;;;;;;;;;;5095471;28;20612;-65
2022/11/13 13:28:00;;;;;;;6.00;4.20;;;;;;;;;;5087581;28;20048;-66
2022/11/13 13:30:26;;;;;;;4.78;4.10;;;;;;;;;;5093477;28;20104;-68
2022/11/13 13:33:16;;;;;;;6.15;4.28;;;;;;;;;;5088134;28;20099;-68
2022/11/13 13:35:42;;;;;;;6.95;4.07;;;;;;;;;;5054082;28;20048;-68
2022/11/13 13:38:25;;;;;;;6.65;4.50;;;;;;;;;;5088776;28;20097;-66
2022/11/13 13:40:51;;;;;;;5.85;4.40;;;;;;;;;;5091239;28;20437;-67
2022/11/13 13:43:17;;;;;;;4.68;3.90;;;;;;;;;;5094673;28;20039;-65
2022/11/13 13:45:56;;;;;;;5.43;4.20;;;;;;;;;;5094002;28;20051;-68
2022/11/13 13:48:25;;;;;;;9.00;4.70;;;;;;;;;;5101232;28;20066;-68
2022/11/13 13:50:51;;;;;;;6.03;4.05;;;;;;;;;;5105919;28;20044;-67
2022/11/13 13:53:26;;;;;;;9.65;4.18;;;;;;;;;;5101794;28;20067;-65
2022/11/13 13:55:55;;;;;;;4.70;4.10;;;;;;;;;;5098468;28;20036;-66
2022/11/13 13:58:26;;;;;;;7.32;4.00;;;;;;;;;;5103600;28;20042;-67
2022/11/13 14:00:56;;;;;;;4.38;3.80;;;;;;;;;;5101070;28;20418;-66
2022/11/13 14:03:24;;;;;;;5.57;3.92;;;;;;;;;;5101136;28;20060;-65
2022/11/13 14:05:50;;;;;;;5.68;4.00;;;;;;;;;;5093932;28;20062;-66
2022/11/13 14:08:16;;;;;;;4.78;4.25;;;;;;;;;;5095378;28;20079;-67
2022/11/13 14:10:45;;;;;;;6.13;4.03;;;;;;;;;;5098062;28;20043;-67
2022/11/13 14:13:14;;;;;;;8.40;4.18;;;;;;;;;;5099605;28;20383;-67
2022/11/13 14:15:40;;;;;;;6.72;4.20;;;;;;;;;;5083541;28;20096;-68
2022/11/13 14:18:16;;;;;;;9.05;4.85;;;;;;;;;;5096385;28;20039;-67
2022/11/13 14:20:47;;;;;;;4.82;4.15;;;;;;;;;;5090647;28;20131;-66
2022/11/13 14:23:14;;;;;;;9.20;4.50;;;;;;;;;;5095376;28;20066;-68
2022/11/13 14:25:41;;;;;;;7.88;4.18;;;;;;;;;;5101065;28;20042;-67
2022/11/13 14:28:13;;;;;;;5.22;4.30;;;;;;;;;;5104142;28;20059;-68
2022/11/13 14:30:39;;;;;;;5.25;4.43;;;;;;;;;;5101137;28;20039;-67
2022/11/13 14:33:08;;;;;;;7.07;4.72;;;;;;;;;;5100878;28;20039;-65